createdAt,value
2023-04-18T00:01:40.252Z,68.11
2023-04-18T00:03:45.872Z,68.12
2023-04-18T00:05:49.969Z,68.12
2023-04-18T00:07:53.465Z,68.21
2023-04-18T00:09:58.484Z,68.29
2023-04-18T00:12:03.124Z,68.20
2023-04-18T00:14:06.965Z,68.25
2023-04-18T00:16:10.035Z,68.38
2023-04-18T00:18:17.236Z,68.37
2023-04-18T00:20:20.317Z,68.33
2023-04-18T00:22:23.533Z,68.40
2023-04-18T00:24:26.408Z,68.48
2023-04-18T00:26:29.199Z,68.52
2023-04-18T00:28:32.776Z,68.42
2023-04-18T00:30:35.710Z,68.53
2023-04-18T00:32:40.987Z,68.56
2023-04-18T00:34:44.632Z,68.39
2023-04-18T00:36:49.279Z,68.43
2023-04-18T00:38:52.527Z,68.48
2023-04-18T00:40:55.611Z,68.38
2023-04-18T00:42:58.798Z,68.35
2023-04-18T00:45:02.127Z,68.29
2023-04-18T00:47:04.868Z,68.38
2023-04-18T00:49:08.456Z,68.36
2023-04-18T00:51:12.373Z,68.30
2023-04-18T00:53:15.715Z,68.33
2023-04-18T00:55:20.679Z,68.23
2023-04-18T00:57:24.795Z,68.46
2023-04-18T00:59:27.767Z,68.31
2023-04-18T01:01:30.990Z,68.26
2023-04-18T01:03:35.500Z,68.36
2023-04-18T01:05:40.392Z,68.30
2023-04-18T01:07:47.735Z,68.16
2023-04-18T01:09:53.563Z,68.16
2023-04-18T01:11:57.022Z,68.34
2023-04-18T01:14:07.277Z,68.19
2023-04-18T01:16:13.339Z,68.29
2023-04-18T01:18:18.576Z,68.52
2023-04-18T01:20:24.629Z,68.49
2023-04-18T01:22:33.976Z,68.58
2023-04-18T01:24:38.360Z,68.61
2023-04-18T01:26:45.242Z,68.71
2023-04-18T01:28:48.712Z,68.79
2023-04-18T01:30:57.723Z,68.83
2023-04-18T01:33:04.997Z,68.71
2023-04-18T01:35:10.715Z,68.84
2023-04-18T01:37:14.899Z,68.88
2023-04-18T01:39:19.688Z,68.94
2023-04-18T01:41:23.861Z,68.84
2023-04-18T01:43:28.135Z,68.89
2023-04-18T01:45:32.262Z,68.82
2023-04-18T01:47:37.667Z,68.80
2023-04-18T01:49:43.557Z,68.76
2023-04-18T01:51:51.702Z,68.74
2023-04-18T01:53:58.441Z,68.70
2023-04-18T01:56:04.984Z,68.96
2023-04-18T01:58:08.604Z,68.88
2023-04-18T02:00:15.417Z,68.89
2023-04-18T02:02:26.688Z,68.87
2023-04-18T02:04:38.382Z,68.89
2023-04-18T02:06:42.007Z,68.89
2023-04-18T02:08:45.092Z,68.86
2023-04-18T02:10:50.960Z,69.03
2023-04-18T02:12:59.165Z,68.97
2023-04-18T02:15:07.213Z,69.03
2023-04-18T02:17:13.049Z,69.14
2023-04-18T02:19:35.043Z,69.14
2023-04-18T02:21:42.849Z,69.32
2023-04-18T02:23:54.927Z,69.27
2023-04-18T02:26:01.483Z,69.43
2023-04-18T02:28:08.055Z,69.55
2023-04-18T02:30:12.293Z,69.60
2023-04-18T02:32:21.136Z,69.77
2023-04-18T02:34:26.748Z,69.88
2023-04-18T02:36:31.189Z,69.96
2023-04-18T02:38:36.850Z,69.92
2023-04-18T02:40:41.723Z,69.97
2023-04-18T02:42:46.567Z,69.92
2023-04-18T02:44:52.311Z,69.91
2023-04-18T02:46:58.424Z,70.08
2023-04-18T02:49:03.075Z,70.01
2023-04-18T02:51:07.939Z,70.05
2023-04-18T02:53:15.066Z,70.23
2023-04-18T02:55:31.483Z,70.14
2023-04-18T02:57:36.303Z,70.23
2023-04-18T03:00:03.655Z,70.46
2023-04-18T03:02:44.956Z,70.35
2023-04-18T03:05:28.959Z,70.26
2023-04-18T03:07:36.890Z,70.41
2023-04-18T03:09:41.390Z,70.32
2023-04-18T03:12:02.241Z,70.24
2023-04-18T03:14:10.918Z,70.40
2023-04-18T03:16:44.612Z,70.37
2023-04-18T03:18:50.162Z,70.54
2023-04-18T03:21:09.378Z,70.47
2023-04-18T03:23:14.030Z,70.48
2023-04-18T03:25:22.675Z,70.54
2023-04-18T03:27:31.812Z,70.41
2023-04-18T03:29:36.491Z,70.38
2023-04-18T03:31:45.177Z,70.38
2023-04-18T03:33:48.417Z,70.23
2023-04-18T03:35:52.482Z,70.18
2023-04-18T03:37:56.321Z,70.26
2023-04-18T03:40:28.296Z,70.29
2023-04-18T03:42:44.779Z,70.43
2023-04-18T03:44:51.990Z,70.56
2023-04-18T03:46:59.072Z,70.69
2023-04-18T03:49:12.626Z,70.78
2023-04-18T03:51:28.333Z,70.92
2023-04-18T03:53:42.295Z,70.98
2023-04-18T03:55:52.169Z,70.96
2023-04-18T03:58:07.702Z,70.79
2023-04-18T04:00:13.837Z,71.02
2023-04-18T04:02:23.903Z,71.05
2023-04-18T04:04:28.000Z,71.03
2023-04-18T04:06:33.987Z,71.18
2023-04-18T04:08:52.534Z,71.27
2023-04-18T04:11:15.583Z,71.25
2023-04-18T04:13:29.413Z,71.30
2023-04-18T04:15:34.146Z,71.37
2023-04-18T04:17:46.500Z,71.23
2023-04-18T04:19:56.281Z,71.38
2023-04-18T04:22:27.696Z,71.41
2023-04-18T04:24:35.105Z,71.35
2023-04-18T04:26:40.653Z,71.34
2023-04-18T04:28:53.200Z,71.32
2023-04-18T04:31:01.100Z,71.14
2023-04-18T04:33:09.104Z,71.23
2023-04-18T04:35:22.656Z,71.21
2023-04-18T04:37:30.058Z,71.15
2023-04-18T04:39:46.245Z,71.07
2023-04-18T04:42:26.200Z,71.00
2023-04-18T04:44:35.627Z,71.11
2023-04-18T04:46:40.581Z,71.37
2023-04-18T04:48:54.849Z,71.43
2023-04-18T04:51:00.373Z,71.27
2023-04-18T04:53:08.302Z,71.24
2023-04-18T04:55:13.926Z,71.20
2023-04-18T04:57:21.582Z,71.14
2023-04-18T04:59:24.626Z,71.25
2023-04-18T05:01:27.919Z,71.25
2023-04-18T05:03:31.345Z,71.13
2023-04-18T05:05:50.798Z,71.21
2023-04-18T05:07:54.374Z,71.03
2023-04-18T05:09:59.378Z,71.17
2023-04-18T05:12:06.530Z,70.98
2023-04-18T05:14:09.462Z,71.05
2023-04-18T05:16:13.330Z,71.03
2023-04-18T05:18:24.900Z,71.03
2023-04-18T05:20:31.641Z,71.09
2023-04-18T05:22:41.350Z,71.24
2023-04-18T05:24:44.830Z,71.20
2023-04-18T05:26:49.206Z,71.09
2023-04-18T05:28:54.225Z,70.94
2023-04-18T05:31:16.949Z,70.95
2023-04-18T05:33:20.898Z,70.85
2023-04-18T05:35:23.691Z,70.69
2023-04-18T05:37:26.769Z,70.77
2023-04-18T05:39:29.453Z,70.57
2023-04-18T05:41:32.559Z,70.64
2023-04-18T05:43:35.344Z,70.65
2023-04-18T05:45:38.715Z,70.49
2023-04-18T05:47:41.548Z,70.47
2023-04-18T05:49:45.045Z,70.50
2023-04-18T05:51:50.349Z,70.35
2023-04-18T05:53:53.104Z,70.39
2023-04-18T05:55:59.337Z,70.46
2023-04-18T05:58:02.431Z,70.49
2023-04-18T06:00:08.484Z,70.64
2023-04-18T06:02:32.538Z,70.65
2023-04-18T06:04:48.485Z,70.64
2023-04-18T06:06:55.089Z,70.79
2023-04-18T06:08:59.330Z,70.84
2023-04-18T06:11:09.862Z,70.71
2023-04-18T06:13:19.558Z,70.90
2023-04-18T06:15:29.894Z,70.63
2023-04-18T06:17:37.552Z,70.57
2023-04-18T06:19:43.316Z,70.42
2023-04-18T06:21:49.956Z,70.49
2023-04-18T06:23:58.202Z,70.54
2023-04-18T06:26:07.018Z,70.38
2023-04-18T06:28:17.240Z,70.43
2023-04-18T06:30:22.254Z,70.58
2023-04-18T06:32:26.954Z,70.31
2023-04-18T06:34:35.515Z,70.17
2023-04-18T06:36:40.780Z,70.07
2023-04-18T06:38:44.907Z,69.66
2023-04-18T06:40:47.626Z,69.43
2023-04-18T06:42:55.028Z,69.36
2023-04-18T06:44:58.007Z,69.28
2023-04-18T06:47:03.142Z,69.10
2023-04-18T06:49:06.197Z,69.08
2023-04-18T06:51:11.077Z,69.01
2023-04-18T06:53:16.098Z,68.75
2023-04-18T06:55:18.882Z,68.52
2023-04-18T06:57:22.053Z,68.45
2023-04-18T06:59:25.411Z,68.16
2023-04-18T07:01:33.914Z,68.08
2023-04-18T07:03:36.956Z,67.57
2023-04-18T07:05:41.003Z,67.15
2023-04-18T07:07:46.610Z,66.64
2023-04-18T07:10:02.806Z,66.76
2023-04-18T07:12:07.330Z,66.59
2023-04-18T07:14:12.259Z,66.60
2023-04-18T07:16:16.677Z,65.85
2023-04-18T07:18:34.140Z,65.73
2023-04-18T07:20:44.057Z,65.30
2023-04-18T07:22:56.970Z,65.07
2023-04-18T07:25:00.493Z,65.40
2023-04-18T07:27:19.275Z,65.13
2023-04-18T07:29:25.004Z,65.52
2023-04-18T07:31:28.951Z,65.54
2023-04-18T07:33:39.515Z,65.29
2023-04-18T07:35:45.943Z,65.19
2023-04-18T07:37:48.937Z,64.86
2023-04-18T07:39:52.568Z,65.20
2023-04-18T07:42:02.095Z,65.22
2023-04-18T07:44:08.337Z,65.53
2023-04-18T07:46:16.417Z,65.57
2023-04-18T07:48:23.482Z,65.46
2023-04-18T07:50:30.598Z,65.65
2023-04-18T07:52:34.178Z,65.49
2023-04-18T07:54:38.125Z,65.39
2023-04-18T07:56:41.206Z,65.43
2023-04-18T07:58:45.664Z,65.81
2023-04-18T08:00:49.309Z,65.85
2023-04-18T08:02:53.105Z,65.78
2023-04-18T08:04:58.762Z,65.61
2023-04-18T08:07:02.127Z,65.19
2023-04-18T08:09:09.508Z,65.18
2023-04-18T08:11:13.319Z,64.97
2023-04-18T08:13:18.248Z,65.01
2023-04-18T08:15:43.545Z,64.88
2023-04-18T08:17:49.194Z,65.01
2023-04-18T08:19:54.659Z,64.90
2023-04-18T08:22:11.327Z,64.84
2023-04-18T08:24:41.699Z,64.49
2023-04-18T08:26:52.024Z,64.36
2023-04-18T08:28:57.797Z,64.63
2023-04-18T08:31:00.853Z,64.94
2023-04-18T08:33:09.979Z,65.22
2023-04-18T08:35:14.010Z,65.22
2023-04-18T08:37:19.448Z,64.95
2023-04-18T08:39:27.628Z,64.90
2023-04-18T08:41:36.953Z,64.88
2023-04-18T08:43:42.734Z,65.17
2023-04-18T08:45:59.247Z,65.12
2023-04-18T08:48:06.244Z,64.87
2023-04-18T08:50:12.788Z,64.56
2023-04-18T08:52:27.436Z,64.05
2023-04-18T08:54:34.002Z,64.07
2023-04-18T08:56:39.212Z,63.94
2023-04-18T08:58:47.021Z,64.39
2023-04-18T09:00:52.094Z,64.33
2023-04-18T09:02:57.815Z,64.57
2023-04-18T09:05:26.121Z,64.52
2023-04-18T09:07:36.131Z,64.61
2023-04-18T09:09:49.143Z,64.18
2023-04-18T09:12:12.069Z,63.86
2023-04-18T09:14:26.449Z,63.47
2023-04-18T09:16:47.055Z,63.63
2023-04-18T09:19:10.710Z,63.90
2023-04-18T09:21:23.801Z,63.79
2023-04-18T09:23:32.710Z,63.73
2023-04-18T09:25:50.990Z,63.44
2023-04-18T09:28:01.509Z,63.62
2023-04-18T09:30:33.707Z,63.69
2023-04-18T09:32:41.173Z,63.13
2023-04-18T09:34:47.365Z,63.05
2023-04-18T09:37:08.051Z,62.90
2023-04-18T09:39:27.458Z,62.55
2023-04-18T09:41:31.402Z,62.44
2023-04-18T09:43:40.854Z,61.98
2023-04-18T09:45:44.598Z,62.22
2023-04-18T09:47:49.647Z,61.63
2023-04-18T09:49:54.507Z,61.65
2023-04-18T09:52:00.372Z,61.99
2023-04-18T09:56:35.496Z,61.60
2023-04-18T09:58:42.567Z,61.93
2023-04-18T10:00:50.335Z,62.02
2023-04-18T10:03:18.712Z,61.74
2023-04-18T10:05:25.465Z,62.01
2023-04-18T10:07:34.941Z,62.54
2023-04-18T10:09:41.045Z,62.34
2023-04-18T10:11:46.003Z,62.64
2023-04-18T10:13:53.824Z,62.92
2023-04-18T10:16:03.733Z,62.56
2023-04-18T10:18:18.658Z,61.70
2023-04-18T10:20:25.253Z,60.41
2023-04-18T10:22:34.070Z,60.65
2023-04-18T10:24:53.871Z,61.11
2023-04-18T10:26:58.544Z,61.33
2023-04-18T10:29:09.710Z,60.79
2023-04-18T10:31:25.800Z,60.87
2023-04-18T10:33:41.007Z,60.35
2023-04-18T10:36:02.964Z,60.42
2023-04-18T10:38:16.646Z,59.92
2023-04-18T10:40:36.757Z,60.39
2023-04-18T10:42:47.675Z,60.24
2023-04-18T10:45:40.134Z,60.14
2023-04-18T10:47:46.978Z,60.33
2023-04-18T10:49:56.300Z,59.73
2023-04-18T10:52:01.870Z,59.91
2023-04-18T10:54:09.951Z,59.86
2023-04-18T10:56:17.203Z,59.57
2023-04-18T10:58:22.439Z,59.61
2023-04-18T11:00:43.876Z,59.63
2023-04-18T11:03:05.609Z,59.90
2023-04-18T11:05:11.548Z,60.40
2023-04-18T11:07:17.886Z,60.78
2023-04-18T11:09:21.360Z,61.01
2023-04-18T11:12:10.641Z,61.02
2023-04-18T11:14:23.461Z,61.30
2023-04-18T11:16:38.734Z,61.06
2023-04-18T11:18:42.610Z,61.04
2023-04-18T11:20:52.215Z,60.79
2023-04-18T11:22:58.728Z,60.97
2023-04-18T11:25:08.076Z,61.12
2023-04-18T11:27:14.729Z,60.88
2023-04-18T11:29:18.211Z,60.92
2023-04-18T11:31:25.385Z,61.03
2023-04-18T11:33:30.481Z,60.44
2023-04-18T11:35:44.933Z,59.80
2023-04-18T11:38:04.138Z,60.45
2023-04-18T11:40:13.532Z,60.77
2023-04-18T11:42:18.307Z,60.27
2023-04-18T11:44:26.776Z,59.27
2023-04-18T11:49:30.908Z,59.26
2023-04-18T11:51:48.320Z,59.07
2023-04-18T11:53:52.653Z,59.06
2023-04-18T11:56:22.546Z,58.89
2023-04-18T11:58:42.265Z,59.22
2023-04-18T12:00:46.840Z,59.45
2023-04-18T12:02:56.723Z,59.42
2023-04-18T12:05:30.998Z,59.66
2023-04-18T12:07:37.709Z,59.30
2023-04-18T12:09:43.929Z,58.72
2023-04-18T12:12:19.621Z,58.96
2023-04-18T12:14:38.817Z,58.88
2023-04-18T12:16:44.365Z,58.79
2023-04-18T12:18:48.355Z,59.02
2023-04-18T12:20:54.379Z,59.15
2023-04-18T12:23:00.917Z,59.29
2023-04-18T12:25:38.877Z,58.63
2023-04-18T12:28:06.883Z,58.70
2023-04-18T12:30:10.587Z,58.62
2023-04-18T12:32:13.561Z,58.02
2023-04-18T12:34:19.289Z,57.63
2023-04-18T12:36:29.243Z,57.72
2023-04-18T12:38:44.839Z,57.91
2023-04-18T12:40:54.929Z,58.56
2023-04-18T12:42:57.991Z,58.91
2023-04-18T12:45:03.811Z,58.96
2023-04-18T12:47:08.657Z,59.18
2023-04-18T12:49:16.713Z,58.80
2023-04-18T12:51:25.940Z,59.17
2023-04-18T12:53:37.904Z,59.40
2023-04-18T12:55:42.034Z,58.91
2023-04-18T12:57:47.659Z,58.87
2023-04-18T12:59:51.180Z,58.75
2023-04-18T13:01:57.464Z,58.95
2023-04-18T13:04:12.289Z,59.46
2023-04-18T13:06:17.364Z,59.56
2023-04-18T13:08:23.735Z,59.49
2023-04-18T13:10:31.054Z,59.73
2023-04-18T13:12:43.308Z,59.57
2023-04-18T13:14:55.960Z,60.05
2023-04-18T13:17:01.543Z,60.28
2023-04-18T13:19:10.260Z,59.96
2023-04-18T13:21:25.254Z,60.25
2023-04-18T13:23:37.645Z,60.63
2023-04-18T13:25:44.397Z,60.59
2023-04-18T13:27:53.087Z,60.89
2023-04-18T13:30:04.979Z,60.88
2023-04-18T13:32:18.321Z,61.05
2023-04-18T13:34:26.481Z,61.32
2023-04-18T13:36:30.011Z,61.35
2023-04-18T13:38:34.749Z,61.29
2023-04-18T13:40:40.712Z,61.70
2023-04-18T13:42:53.320Z,61.62
2023-04-18T13:45:05.877Z,61.44
2023-04-18T13:47:15.950Z,61.83
2023-04-18T13:49:27.686Z,61.77
2023-04-18T13:51:52.933Z,61.93
2023-04-18T13:53:57.062Z,62.12
2023-04-18T13:56:01.867Z,62.24
2023-04-18T13:58:11.817Z,62.49
2023-04-18T14:00:17.275Z,62.73
2023-04-18T14:02:20.721Z,62.56
2023-04-18T14:04:32.901Z,62.43
2023-04-18T14:06:53.358Z,62.29
2023-04-18T14:09:02.332Z,62.44
2023-04-18T14:11:07.389Z,62.50
2023-04-18T14:13:12.849Z,62.84
2023-04-18T14:15:19.951Z,62.88
2023-04-18T14:17:22.982Z,62.84
2023-04-18T14:19:27.013Z,62.73
2023-04-18T14:21:39.277Z,62.77
2023-04-18T14:24:00.566Z,62.84
2023-04-18T14:26:05.912Z,62.80
2023-04-18T14:28:11.883Z,62.78
2023-04-18T14:30:20.946Z,62.75
2023-04-18T14:32:27.241Z,62.96
2023-04-18T14:34:38.226Z,62.90
2023-04-18T14:36:55.408Z,62.98
2023-04-18T14:39:03.627Z,63.11
2023-04-18T14:41:07.401Z,63.27
2023-04-18T14:43:10.680Z,63.34
2023-04-18T14:45:16.517Z,63.67
2023-04-18T14:47:19.945Z,63.68
2023-04-18T14:49:23.401Z,63.59
2023-04-18T14:51:26.519Z,63.55
2023-04-18T14:53:31.117Z,63.60
2023-04-18T14:55:34.730Z,63.55
2023-04-18T14:58:00.105Z,63.49
2023-04-18T15:00:11.005Z,63.53
2023-04-18T15:02:25.037Z,63.68
2023-04-18T15:04:29.048Z,63.79
2023-04-18T15:06:34.847Z,63.76
2023-04-18T15:08:37.862Z,63.87
2023-04-18T15:10:56.921Z,63.88
2023-04-18T15:13:00.221Z,63.74
2023-04-18T15:15:07.376Z,63.41
2023-04-18T15:17:22.049Z,63.40
2023-04-18T15:19:35.363Z,63.66
2023-04-18T15:21:40.826Z,63.75
2023-04-18T15:23:45.452Z,64.00
2023-04-18T15:25:50.388Z,64.09
2023-04-18T15:27:54.893Z,64.09
2023-04-18T15:30:02.886Z,64.16
2023-04-18T15:32:28.865Z,64.21
2023-04-18T15:34:32.734Z,64.11
2023-04-18T15:36:38.151Z,64.20
2023-04-18T15:38:45.460Z,64.33
2023-04-18T15:40:51.991Z,64.23
2023-04-18T15:43:00.759Z,64.13
2023-04-18T15:45:24.634Z,64.26
2023-04-18T15:47:42.972Z,64.40
2023-04-18T15:49:50.464Z,64.16
2023-04-18T15:51:54.949Z,64.13
2023-04-18T15:54:07.996Z,64.05
2023-04-18T15:56:17.912Z,64.33
2023-04-18T15:58:32.903Z,64.34
2023-04-18T16:00:42.832Z,64.39
2023-04-18T16:02:50.878Z,64.33
2023-04-18T16:04:56.169Z,64.52
2023-04-18T16:07:49.138Z,64.72
2023-04-18T16:09:55.285Z,64.54
2023-04-18T16:11:58.445Z,64.45
2023-04-18T16:14:13.936Z,64.33
2023-04-18T16:16:17.884Z,64.49
2023-04-18T16:18:23.316Z,64.37
2023-04-18T16:20:30.221Z,64.55
2023-04-18T16:22:41.443Z,64.49
2023-04-18T16:25:04.364Z,64.42
2023-04-18T16:27:36.078Z,64.31
2023-04-18T16:29:41.309Z,64.31
2023-04-18T16:31:48.116Z,64.08
2023-04-18T16:34:16.987Z,64.10
2023-04-18T16:36:24.006Z,64.13
2023-04-18T16:38:33.844Z,64.11
2023-04-18T16:40:41.330Z,64.13
2023-04-18T16:42:58.265Z,63.97
2023-04-18T16:45:26.033Z,64.14
2023-04-18T16:47:29.910Z,64.28
2023-04-18T16:49:36.935Z,64.14
2023-04-18T16:51:42.374Z,64.22
2023-04-18T16:53:47.104Z,64.29
2023-04-18T16:55:56.463Z,64.40
2023-04-18T16:57:59.524Z,64.48
2023-04-18T17:02:36.188Z,64.16
2023-04-18T17:05:06.566Z,64.13
2023-04-18T17:07:11.410Z,64.27
2023-04-18T17:09:18.180Z,64.25
2023-04-18T17:11:28.473Z,64.35
2023-04-18T17:13:32.353Z,64.36
2023-04-18T17:15:37.109Z,64.37
2023-04-18T17:17:46.952Z,64.48
2023-04-18T17:20:01.575Z,64.57
2023-04-18T17:22:07.992Z,64.57
2023-04-18T17:24:16.068Z,64.56
2023-04-18T17:26:28.855Z,64.56
2023-04-18T17:28:36.331Z,64.45
2023-04-18T17:30:42.648Z,64.45
2023-04-18T17:33:00.873Z,64.56
2023-04-18T17:35:35.189Z,64.65
2023-04-18T17:37:42.160Z,64.84
2023-04-18T17:39:59.103Z,65.08
2023-04-18T17:42:05.538Z,65.21
2023-04-18T17:44:11.176Z,65.05
2023-04-18T17:46:26.553Z,65.04
2023-04-18T17:48:35.062Z,64.92
2023-04-18T17:50:54.929Z,65.03
2023-04-18T17:52:58.562Z,65.12
2023-04-18T17:55:07.426Z,64.85
2023-04-18T17:57:14.533Z,65.05
2023-04-18T17:59:18.539Z,65.19
2023-04-18T18:01:48.810Z,65.13
2023-04-18T18:03:58.365Z,65.13
2023-04-18T18:06:08.422Z,65.12
2023-04-18T18:08:19.287Z,64.92
2023-04-18T18:10:25.657Z,65.00
2023-04-18T18:12:32.590Z,65.12
2023-04-18T18:14:40.414Z,65.34
2023-04-18T18:16:50.541Z,65.05
2023-04-18T18:19:10.207Z,65.14
2023-04-18T18:21:30.067Z,65.27
2023-04-18T18:23:35.991Z,65.26
2023-04-18T18:25:41.565Z,65.32
2023-04-18T18:27:53.327Z,65.21
2023-04-18T18:29:57.038Z,65.21
2023-04-18T18:32:04.007Z,65.30
2023-04-18T18:34:17.638Z,65.28
2023-04-18T18:36:54.371Z,65.31
2023-04-18T18:38:59.192Z,65.38
2023-04-18T18:41:05.286Z,65.36
2023-04-18T18:43:08.139Z,65.39
2023-04-18T18:45:15.553Z,65.54
2023-04-18T18:47:19.411Z,65.54
2023-04-18T18:49:47.886Z,65.56
2023-04-18T18:51:54.609Z,65.55
2023-04-18T18:53:57.411Z,65.54
2023-04-18T18:56:01.184Z,65.69
2023-04-18T18:58:07.829Z,65.57
2023-04-18T19:00:23.620Z,65.72
2023-04-18T19:02:34.551Z,65.55
2023-04-18T19:04:41.618Z,65.45
2023-04-18T19:06:57.226Z,65.45
2023-04-18T19:09:11.895Z,65.60
2023-04-18T19:11:16.225Z,65.72
2023-04-18T19:13:25.397Z,65.75
2023-04-18T19:15:31.368Z,65.72
2023-04-18T19:17:36.837Z,65.89
2023-04-18T19:19:49.729Z,65.87
2023-04-18T19:21:54.955Z,65.68
2023-04-18T19:24:03.990Z,65.79
2023-04-18T19:26:18.042Z,65.90
2023-04-18T19:28:27.755Z,65.90
2023-04-18T19:30:33.219Z,66.09
2023-04-18T19:32:39.322Z,65.85
2023-04-18T19:34:44.610Z,66.03
2023-04-18T19:37:05.215Z,65.84
2023-04-18T19:39:12.103Z,65.87
2023-04-18T19:41:15.516Z,65.86
2023-04-18T19:43:34.294Z,65.91
2023-04-18T19:45:41.274Z,66.08
2023-04-18T19:47:50.181Z,65.85
2023-04-18T19:50:00.443Z,65.87
2023-04-18T19:52:06.490Z,65.90
2023-04-18T19:54:20.292Z,65.91
2023-04-18T19:56:25.702Z,65.84
2023-04-18T19:58:45.884Z,65.75
2023-04-18T20:01:05.514Z,65.85
2023-04-18T20:03:13.454Z,65.81
2023-04-18T20:05:18.651Z,65.83
2023-04-18T20:07:26.014Z,65.74
2023-04-18T20:09:31.047Z,65.86
2023-04-18T20:11:35.971Z,65.81
2023-04-18T20:13:41.561Z,65.73
2023-04-18T20:15:54.370Z,65.82
2023-04-18T20:17:57.560Z,65.68
2023-04-18T20:20:06.571Z,65.85
2023-04-18T20:22:17.412Z,65.73
2023-04-18T20:24:46.461Z,65.97
2023-04-18T20:26:52.339Z,66.06
2023-04-18T20:28:59.265Z,66.16
2023-04-18T20:31:08.416Z,66.31
2023-04-18T20:33:12.760Z,66.18
2023-04-18T20:35:25.306Z,66.38
2023-04-18T20:37:37.331Z,66.43
2023-04-18T20:40:13.251Z,66.62
2023-04-18T20:42:17.761Z,66.57
2023-04-18T20:44:22.490Z,66.69
2023-04-18T20:46:28.392Z,66.87
2023-04-18T20:48:35.458Z,66.82
2023-04-18T20:50:41.173Z,66.89
2023-04-18T20:52:46.673Z,66.96
2023-04-18T20:54:50.852Z,67.08
2023-04-18T20:57:02.337Z,67.27
2023-04-18T20:59:06.621Z,67.31
2023-04-18T21:01:38.486Z,67.28
2023-04-18T21:03:43.738Z,67.34
2023-04-18T21:05:55.568Z,67.40
2023-04-18T21:08:02.814Z,67.32
2023-04-18T21:10:14.468Z,67.43
2023-04-18T21:12:18.850Z,67.53
2023-04-18T21:14:28.212Z,67.61
2023-04-18T21:16:42.536Z,67.80
2023-04-18T21:18:49.431Z,67.65
2023-04-18T21:20:57.292Z,67.69
2023-04-18T21:23:11.968Z,67.86
2023-04-18T21:25:22.354Z,68.02
2023-04-18T21:27:50.324Z,67.89
2023-04-18T21:30:19.681Z,67.84
2023-04-18T21:32:24.774Z,67.84
2023-04-18T21:34:42.848Z,67.73
2023-04-18T21:36:46.410Z,67.74
2023-04-18T21:38:57.730Z,67.60
2023-04-18T21:43:26.483Z,67.58
2023-04-18T21:45:39.915Z,67.61
2023-04-18T21:47:47.105Z,67.71
2023-04-18T21:49:50.754Z,67.72
2023-04-18T21:52:03.774Z,67.98
2023-04-18T21:54:09.286Z,68.18
2023-04-18T21:56:14.277Z,68.22
2023-04-18T21:58:41.499Z,68.27
2023-04-18T22:00:44.537Z,68.25
2023-04-18T22:02:50.638Z,68.43
2023-04-18T22:04:57.618Z,68.40
2023-04-18T22:07:02.652Z,68.43
2023-04-18T22:11:39.842Z,68.63
2023-04-18T22:13:45.794Z,68.64
2023-04-18T22:18:23.735Z,68.64
2023-04-18T22:20:32.291Z,68.46
2023-04-18T22:22:44.516Z,68.58
2023-04-18T22:24:48.638Z,68.66
2023-04-18T22:26:53.760Z,68.59
2023-04-18T22:29:46.981Z,68.62
2023-04-18T22:31:34.367Z,68.68
2023-04-18T22:33:38.812Z,68.79
2023-04-18T22:35:43.475Z,68.84
2023-04-18T22:37:48.364Z,68.81
2023-04-18T22:39:55.034Z,68.96
2023-04-18T22:42:01.185Z,69.09
2023-04-18T22:44:06.690Z,69.21
2023-04-18T22:46:12.754Z,69.05
2023-04-18T22:48:19.126Z,69.30
2023-04-18T22:50:24.699Z,69.36
2023-04-18T22:52:28.026Z,69.51
2023-04-18T22:54:56.506Z,69.32
2023-04-18T22:57:06.556Z,69.71
2023-04-18T22:59:14.445Z,69.71
2023-04-18T23:01:19.628Z,69.62
2023-04-18T23:03:39.896Z,69.59
2023-04-18T23:05:43.743Z,69.67
2023-04-18T23:07:46.652Z,69.59
2023-04-18T23:09:50.187Z,69.66
2023-04-18T23:11:53.956Z,69.43
2023-04-18T23:13:57.381Z,69.44
2023-04-18T23:16:04.823Z,69.38
2023-04-18T23:18:12.765Z,69.47
2023-04-18T23:20:19.980Z,69.35
2023-04-18T23:22:53.057Z,69.29
2023-04-18T23:25:02.950Z,69.33
2023-04-18T23:27:08.084Z,69.44
2023-04-18T23:29:20.757Z,69.36
2023-04-18T23:32:10.897Z,69.32
2023-04-18T23:34:15.012Z,69.29
2023-04-18T23:36:29.157Z,69.39
2023-04-18T23:38:41.253Z,69.55
2023-04-18T23:40:45.424Z,69.39
2023-04-18T23:42:48.929Z,69.28
2023-04-18T23:45:08.206Z,69.41
2023-04-18T23:47:12.884Z,69.36
2023-04-18T23:49:24.161Z,69.26
2023-04-18T23:51:27.863Z,69.45
2023-04-18T23:53:34.242Z,69.50
2023-04-18T23:55:38.617Z,69.62
2023-04-18T23:57:42.698Z,69.59
2023-04-18T23:59:57.935Z,69.73
